Aérodrome :
LOGIN :

S'inscrire | Disclaimer

   EN    FR    IT 

 










Légende :    VFR   VFR Marginal   IFR   IFR Intensif   IFR Très Intensif
Visi : 
Plafond : 
>= 8 km
>= 3000ft
5 à 8 km
1000 à 3000 ft
1500m à 5 km
500 à 1000 ft
800 à 1500m
200 à 500 ft
< 800m
< 200 ft
Symboles :   Orages  Brouillard  Fortes neiges  Fortes précipitations  Vent > 20 kt
SIGMETs :   Divers  Orages  Givrage  Turbulence  Onde Orograph.  Cendres Volcan.







- Altitude de l'aérodrome : 32 ft
- Code IATA : LKZ


EGUL - RAF Lakenheath

DERNIER METAR :
  • 221956Z AUTO 16004KT 9999 FEW160 13/10 A3015 RMK AO2 SLP213 T01340100 $

METARs EXPIRÉS :
  • 221856Z AUTO 14004KT 9999 SCT080 14/11 A3014 RMK AO2 DZB07E16 SLP210 P0000 T01360108 $
  • 221816Z AUTO 15003KT 9999 FEW080 SCT120 15/10 A3013 RMK AO2 DZB07E16 SLP206 $
  • 221807Z AUTO 16003KT 9999 -DZ FEW120 15/10 A3014 RMK AO2 DZB07 SLP210 $

TAF TAF EGUL
Valide du 22 à 12h jusqu'au 23 à 18h UTC


221211Z 2212/2318 23006KT 9999 SCT030 QNH3012INS
BECMG 2222/2223 20006KT 9999 BKN040 QNH3015INS
BECMG 2303/2304 18006KT 8000 -SHRA FEW010 BKN020 QNH3015INS
TEMPO 2304/2308 5000 BR
BECMG 2308/2309 19009KT 9999 NSW FEW015 BKN040 QNH3014INS TX18/2215Z TN10/2306Z LAST NO AMDS AFT 2212 NEXT 2304
Pas de NOTAMs connus pour ce terrain.



MET'MAP, la Météo Aéronautique d'un coup d'oeil ! - Copyright ORBIFLY Décembre 2007 - Disclaimer

ORBIFLY MET'MAP TEAM :

Programmation & Développement : Alexandra Zaïnal
Conception & Développement : Baudouin d'Aumeries
Co-Programmation & Développement : Marc-Olivier Méhu
Soutien technique & logistique : Manuel Goepfert

Contact : metmap@orbifly.com




SOURCES & CREDITS :

   NOAA